Time;durP1;ratioP1;P1;durP2;ratioP2;P2;SDS_P1;SDS_P2;PMS_P1;PMS_P2;Temp;Humidity;BMP_temperature;BMP_pressure;BME280_temperature;BME280_humidity;BME280_pressure;Samples;Min_cycle;Max_cycle;Signal;HPM_P1;HPM_P2
2022/12/09 00:00:39;;;;;;;46.73;27.93;;;;;;;2.30;89.86;98163.68;2188594;81;20933;-84
2022/12/09 00:03:39;;;;;;;46.73;27.93;;;;;;;2.30;89.86;98163.68;2173168;81;20997;-84
2022/12/09 00:06:40;;;;;;;53.23;29.90;;;;;;;2.29;90.11;98151.63;2173154;81;20912;-83
2022/12/09 00:09:40;;;;;;;52.40;30.17;;;;;;;2.27;89.97;98166.16;2173292;81;21308;-83
2022/12/09 00:12:41;;;;;;;45.87;28.73;;;;;;;2.27;89.97;98166.16;2173073;81;21047;-82
2022/12/09 00:15:41;;;;;;;61.37;29.73;;;;;;;2.26;90.04;98164.81;2172887;81;20992;-83
2022/12/09 00:18:41;;;;;;;56.10;31.70;;;;;;;2.26;89.99;98160.95;2172542;81;21023;-83
2022/12/09 00:21:42;;;;;;;54.70;32.00;;;;;;;2.26;90.03;98161.83;2172961;81;20980;-82
2022/12/09 00:24:42;;;;;;;54.50;30.20;;;;;;;2.29;90.03;98158.48;2173137;81;20980;-83
2022/12/09 00:27:43;;;;;;;53.10;29.63;;;;;;;2.31;90.16;98155.55;2173485;82;20933;-83
2022/12/09 00:30:43;;;;;;;53.50;28.97;;;;;;;2.29;90.01;98157.19;2173209;81;20934;-83
2022/12/09 00:33:43;;;;;;;53.20;30.50;;;;;;;2.29;89.98;98165.79;2173395;81;20957;-83
2022/12/09 00:36:44;;;;;;;54.30;30.83;;;;;;;2.27;90.04;98167.44;2173420;81;21022;-82
2022/12/09 00:39:44;;;;;;;59.57;31.30;;;;;;;2.27;90.05;98167.44;2173261;81;20973;-83
2022/12/09 00:42:45;;;;;;;55.03;29.57;;;;;;;2.24;90.04;98168.22;2173244;81;20925;-84
2022/12/09 00:45:45;;;;;;;59.13;32.40;;;;;;;2.22;90.27;98167.28;2173451;81;20937;-83
2022/12/09 00:48:45;;;;;;;62.03;33.43;;;;;;;2.21;90.01;98174.96;2173428;81;21343;-83
2022/12/09 00:51:46;;;;;;;61.73;33.00;;;;;;;2.22;90.01;98184.44;2173256;81;20921;-84
2022/12/09 00:54:46;;;;;;;55.77;33.67;;;;;;;2.20;89.83;98179.23;2173297;82;20976;-83
2022/12/09 00:57:47;;;;;;;63.57;35.23;;;;;;;2.20;90.21;98185.67;2172762;81;21841;-83
2022/12/09 01:00:47;;;;;;;59.07;32.83;;;;;;;2.24;90.28;98181.09;2173350;81;21335;-83
2022/12/09 01:03:47;;;;;;;59.37;32.83;;;;;;;2.27;90.29;98188.04;2189407;81;21003;-83
2022/12/09 01:06:48;;;;;;;61.43;34.33;;;;;;;2.30;89.99;98193.30;2189845;81;20980;-83
2022/12/09 01:09:48;;;;;;;58.37;33.93;;;;;;;2.30;89.98;98186.86;2188286;81;21362;-83
2022/12/09 01:12:49;;;;;;;52.63;31.73;;;;;;;2.33;90.01;98184.38;2188292;81;20976;-83
2022/12/09 01:15:49;;;;;;;58.67;32.10;;;;;;;2.35;89.88;98178.87;2188251;81;20999;-83
2022/12/09 01:18:49;;;;;;;56.13;31.77;;;;;;;2.33;89.62;98184.80;2188480;81;21027;-83
2022/12/09 01:21:54;;;;;;;55.90;32.13;;;;;;;2.30;89.80;98180.42;2188364;81;21299;-82
2022/12/09 01:24:50;;;;;;;52.90;32.20;;;;;;;2.28;89.67;98183.36;2188230;81;21003;-82
2022/12/09 01:27:51;;;;;;;55.17;31.70;;;;;;;2.28;89.57;98183.36;2190006;81;20936;-83
2022/12/09 01:30:51;;;;;;;54.63;31.50;;;;;;;2.24;89.54;98182.38;2189606;81;21355;-83
2022/12/09 01:33:51;;;;;;;54.60;31.27;;;;;;;2.20;89.52;98180.94;2189133;81;20988;-83
2022/12/09 01:36:52;;;;;;;55.03;30.47;;;;;;;2.20;90.18;98183.51;2188717;81;20976;-84
2022/12/09 01:39:52;;;;;;;56.47;32.57;;;;;;;2.20;90.18;98183.51;2189272;81;20968;-84
2022/12/09 01:42:53;;;;;;;56.73;33.30;;;;;;;2.20;89.86;98184.80;2189211;81;21375;-83
2022/12/09 01:45:53;;;;;;;62.43;34.73;;;;;;;2.17;89.85;98181.70;2189598;81;20968;-82
2022/12/09 01:48:53;;;;;;;64.17;35.17;;;;;;;2.15;89.83;98178.61;2188017;81;20928;-82
2022/12/09 01:51:54;;;;;;;57.57;33.90;;;;;;;2.13;89.94;98172.54;2187059;81;21394;-82
2022/12/09 01:54:54;;;;;;;57.67;33.70;;;;;;;2.15;90.14;98170.48;2186851;81;20980;-84
2022/12/09 01:57:55;;;;;;;59.17;35.23;;;;;;;2.16;90.00;98169.66;2186909;81;21269;-82
2022/12/09 02:00:55;;;;;;;64.03;33.67;;;;;;;2.12;89.80;98170.79;2187124;81;21957;-82
2022/12/09 02:03:56;;;;;;;57.77;33.03;;;;;;;2.11;89.96;98165.17;2188373;81;21378;-83
2022/12/09 02:06:56;;;;;;;59.57;33.67;;;;;;;2.09;90.00;98172.84;2189813;81;20952;-82
2022/12/09 02:09:56;;;;;;;60.43;35.67;;;;;;;2.08;90.18;98170.22;2190147;81;20985;-83
2022/12/09 02:12:57;;;;;;;59.73;33.23;;;;;;;2.08;90.15;98166.36;2189693;81;21347;-83
2022/12/09 02:15:57;;;;;;;66.57;34.50;;;;;;;2.03;89.98;98159.77;2189781;81;21376;-84
2022/12/09 02:18:58;;;;;;;56.23;34.10;;;;;;;2.02;90.16;98161.00;2190046;81;21067;-84
2022/12/09 02:21:58;;;;;;;58.33;34.80;;;;;;;2.00;90.24;98160.08;2189914;81;20964;-84
2022/12/09 02:24:58;;;;;;;61.23;34.83;;;;;;;2.01;90.48;98159.25;2189892;81;21320;-83
2022/12/09 02:27:59;;;;;;;63.33;33.90;;;;;;;2.02;90.44;98159.72;2189790;81;20956;-84
2022/12/09 02:30:59;;;;;;;55.97;32.37;;;;;;;2.03;90.23;98155.91;2190071;81;20949;-83
2022/12/09 02:33:59;;;;;;;55.77;32.90;;;;;;;2.01;90.32;98147.67;2189785;81;21387;-83
2022/12/09 02:37:00;;;;;;;56.97;33.87;;;;;;;2.02;90.27;98149.42;2189586;81;21028;-83
2022/12/09 02:40:00;;;;;;;55.97;34.37;;;;;;;2.02;90.43;98143.86;2190071;81;20936;-84
2022/12/09 02:43:01;;;;;;;59.03;34.87;;;;;;;2.04;90.49;98137.47;2189523;81;21316;-83
2022/12/09 02:46:01;;;;;;;61.77;35.77;;;;;;;2.05;90.50;98138.81;2189798;81;20940;-83
2022/12/09 02:49:02;;;;;;;60.57;34.23;;;;;;;2.10;90.59;98144.99;2190318;81;20993;-84
2022/12/09 02:52:02;;;;;;;56.67;34.80;;;;;;;2.13;90.45;98135.20;2189525;81;20971;-84
2022/12/09 02:55:03;;;;;;;59.40;33.17;;;;;;;2.17;90.46;98139.63;2189411;81;21345;-83
2022/12/09 02:58:06;;;;;;;57.53;33.87;;;;;;;2.18;90.39;98133.66;2189960;81;21023;-83
2022/12/09 03:01:07;;;;;;;58.73;33.53;;;;;;;2.19;90.23;98136.70;2189666;81;21040;-83
2022/12/09 03:04:07;;;;;;;50.90;30.53;;;;;;;2.18;90.10;98129.80;2173364;81;21036;-84
2022/12/09 03:07:08;;;;;;;57.73;32.53;;;;;;;2.15;90.01;98134.84;2173322;81;21366;-83
2022/12/09 03:10:08;;;;;;;54.30;31.33;;;;;;;2.16;90.15;98141.34;2173356;81;20968;-83
2022/12/09 03:13:08;;;;;;;51.80;30.57;;;;;;;2.18;90.25;98129.39;2173731;81;21281;-83
2022/12/09 03:16:09;;;;;;;63.67;37.13;;;;;;;2.17;89.88;98135.36;2173587;81;21316;-85
2022/12/09 03:19:09;;;;;;;64.93;38.00;;;;;;;2.11;89.79;98131.70;2173653;81;20962;-84
2022/12/09 03:22:10;;;;;;;54.63;31.43;;;;;;;2.08;90.02;98134.18;2173356;81;21022;-84
2022/12/09 03:25:10;;;;;;;57.73;32.37;;;;;;;2.07;90.11;98135.00;2173449;81;21383;-84
2022/12/09 03:28:10;;;;;;;60.03;33.10;;;;;;;2.07;90.25;98133.72;2173511;82;20970;-85
2022/12/09 03:31:11;;;;;;;55.43;32.33;;;;;;;2.07;90.09;98133.72;2173390;81;20972;-83
2022/12/09 03:34:11;;;;;;;53.97;31.07;;;;;;;2.04;90.11;98128.47;2171978;81;20984;-83
2022/12/09 03:37:12;;;;;;;52.23;31.70;;;;;;;2.05;90.20;98131.50;2173320;81;21333;-83
2022/12/09 03:40:14;;;;;;;51.83;30.77;;;;;;;2.03;90.35;98129.29;2173516;81;20933;-84
2022/12/09 03:43:15;;;;;;;48.30;29.83;;;;;;;2.02;90.40;98128.41;2174302;81;20980;-83
2022/12/09 03:46:15;;;;;;;53.97;30.80;;;;;;;2.01;90.33;98128.36;2173321;81;21395;-84
2022/12/09 03:49:16;;;;;;;53.03;32.83;;;;;;;1.98;90.50;98129.13;2173585;81;21380;-83
2022/12/09 03:52:19;;;;;;;58.37;35.90;;;;;;;1.96;90.40;98128.62;2173369;81;20988;-84
2022/12/09 03:55:19;;;;;;;55.90;33.67;;;;;;;1.94;90.42;98125.12;2172808;81;21424;-84
2022/12/09 03:58:20;;;;;;;56.97;32.67;;;;;;;1.94;90.53;98129.85;2171711;82;21055;-83
2022/12/09 04:01:20;;;;;;;51.40;31.53;;;;;;;1.94;90.69;98128.56;2172130;81;21264;-84
2022/12/09 04:04:21;;;;;;;57.23;31.00;;;;;;;1.93;90.64;98128.10;2171610;81;21075;-83
2022/12/09 04:07:21;;;;;;;51.63;31.07;;;;;;;1.93;90.74;98124.66;2171376;81;20996;-84
2022/12/09 04:10:21;;;;;;;63.63;35.07;;;;;;;1.94;90.71;98125.12;2172196;82;20949;-83
2022/12/09 04:13:22;;;;;;;54.90;34.90;;;;;;;1.95;90.72;98120.43;2173060;81;21356;-83
2022/12/09 04:16:22;;;;;;;71.10;37.13;;;;;;;1.99;90.96;98119.72;2172365;81;21027;-83
2022/12/09 04:19:23;;;;;;;55.83;33.33;;;;;;;2.01;90.90;98113.79;2172542;81;20988;-83
2022/12/09 04:22:23;;;;;;;57.83;34.43;;;;;;;1.97;90.47;98109.36;2172966;81;21000;-83
2022/12/09 04:25:23;;;;;;;59.70;32.80;;;;;;;1.95;90.59;98112.30;2172158;81;20981;-83
2022/12/09 04:28:24;;;;;;;54.63;32.30;;;;;;;1.89;90.58;98110.39;2171580;81;20991;-83
2022/12/09 04:31:24;;;;;;;51.53;31.13;;;;;;;1.90;90.74;98106.13;2171754;81;20940;-83
2022/12/09 04:34:25;;;;;;;52.43;31.30;;;;;;;1.86;90.66;98110.30;2171488;81;21449;-83
2022/12/09 04:37:25;;;;;;;52.73;30.37;;;;;;;1.84;90.60;98104.63;2171573;81;20952;-83
2022/12/09 04:40:26;;;;;;;56.30;31.27;;;;;;;1.79;90.66;98110.03;2171688;81;20995;-82
2022/12/09 04:43:26;;;;;;;47.13;29.17;;;;;;;1.75;90.88;98114.20;2172379;82;20964;-84
2022/12/09 04:46:26;;;;;;;53.33;30.97;;;;;;;1.72;90.96;98111.48;2172986;81;21284;-83
2022/12/09 04:49:27;;;;;;;54.43;31.73;;;;;;;1.74;91.21;98112.45;2172614;81;20956;-84
2022/12/09 04:52:27;;;;;;;64.57;36.00;;;;;;;1.75;91.28;98112.91;2172424;81;20988;-83
2022/12/09 04:55:28;;;;;;;71.23;39.03;;;;;;;1.74;91.25;98108.59;2172086;81;20960;-83
2022/12/09 04:58:28;;;;;;;79.77;40.67;;;;;;;1.75;91.30;98112.91;2172600;81;21012;-84
2022/12/09 05:01:28;;;;;;;79.37;42.53;;;;;;;1.73;91.36;98108.09;2171565;81;21451;-83
2022/12/09 05:04:29;;;;;;;71.77;39.20;;;;;;;1.73;91.36;98108.09;2171349;81;21051;-84
2022/12/09 05:07:31;;;;;;;79.20;42.03;;;;;;;1.71;91.12;98116.16;2160152;82;21306;-83
2022/12/09 05:10:31;;;;;;;68.50;38.00;;;;;;;1.70;91.29;98114.83;2172422;81;21441;-85
2022/12/09 05:13:32;;;;;;;69.17;38.07;;;;;;;1.73;91.63;98117.09;2171522;81;20984;-85
2022/12/09 05:16:32;;;;;;;69.87;38.37;;;;;;;1.71;91.36;98112.72;2170126;81;21313;-83
2022/12/09 05:19:33;;;;;;;70.97;40.43;;;;;;;1.73;91.51;98112.36;2170294;81;21349;-84
2022/12/09 05:22:33;;;;;;;77.57;40.13;;;;;;;1.72;91.38;98113.18;2170699;81;20968;-84
2022/12/09 05:25:34;;;;;;;78.10;40.97;;;;;;;1.69;91.40;98114.36;2169901;81;21410;-84
2022/12/09 05:28:34;;;;;;;65.20;36.40;;;;;;;1.69;91.59;98115.64;2169758;81;20996;-83
2022/12/09 05:31:34;;;;;;;68.27;34.70;;;;;;;1.74;91.76;98114.14;2170365;81;21036;-84
2022/12/09 05:34:35;;;;;;;59.90;34.17;;;;;;;1.72;91.68;98111.89;2170139;81;21020;-83
2022/12/09 05:37:35;;;;;;;56.00;33.53;;;;;;;1.74;91.95;98112.45;2171701;81;21286;-84
2022/12/09 05:40:36;;;;;;;56.30;32.60;;;;;;;1.73;91.78;98119.66;2172747;81;21393;-84
2022/12/09 05:43:36;;;;;;;55.77;32.87;;;;;;;1.74;91.93;98118.87;2171624;81;20991;-82
2022/12/09 05:46:36;;;;;;;59.03;35.60;;;;;;;1.76;92.00;98118.93;2171118;81;21271;-84
2022/12/09 05:49:37;;;;;;;54.47;32.17;;;;;;;1.75;91.96;98116.77;2172859;81;21602;-84
2022/12/09 05:52:37;;;;;;;54.93;32.70;;;;;;;1.78;92.06;98113.42;2171791;81;20999;-84
2022/12/09 05:55:38;;;;;;;59.33;35.10;;;;;;;1.80;92.10;98112.66;2171145;81;21407;-82
2022/12/09 05:58:38;;;;;;;66.53;35.97;;;;;;;1.83;91.98;98110.19;2169632;81;21003;-83
2022/12/09 06:01:38;;;;;;;61.53;34.40;;;;;;;1.84;91.89;98105.91;2170212;81;20960;-82
2022/12/09 06:04:39;;;;;;;52.27;31.47;;;;;;;1.83;91.70;98103.75;2170139;81;21990;-82
2022/12/09 06:07:39;;;;;;;44.73;28.13;;;;;;;1.82;91.50;98103.29;2169991;81;20972;-83
2022/12/09 06:10:40;;;;;;;45.93;29.30;;;;;;;1.79;91.54;98110.91;2170199;81;20972;-83
2022/12/09 06:13:40;;;;;;;46.37;29.00;;;;;;;1.78;91.71;98105.30;2169890;81;20961;-82
2022/12/09 06:16:41;;;;;;;52.77;30.03;;;;;;;1.79;91.54;98104.88;2169385;81;21734;-83
2022/12/09 06:19:41;;;;;;;51.73;29.43;;;;;;;1.80;91.63;98104.94;2169481;81;21035;-82
2022/12/09 06:22:41;;;;;;;47.63;29.27;;;;;;;1.81;91.45;98106.69;2169545;81;21012;-81
2022/12/09 06:25:42;;;;;;;50.93;31.13;;;;;;;1.80;91.45;98105.34;2169785;81;20961;-84
2022/12/09 06:28:42;;;;;;;48.00;29.67;;;;;;;1.80;91.49;98107.51;2169428;81;21500;-81
2022/12/09 06:31:42;;;;;;;50.23;29.30;;;;;;;1.82;91.56;98103.70;2170556;82;20996;-82
2022/12/09 06:34:43;;;;;;;49.17;29.93;;;;;;;1.81;91.23;98109.67;2171313;81;21047;-81
2022/12/09 06:37:43;;;;;;;48.17;29.13;;;;;;;1.80;91.49;98113.94;2170332;81;21431;-84
2022/12/09 06:40:44;;;;;;;50.80;29.03;;;;;;;1.81;91.44;98114.41;2169579;81;21040;-83
2022/12/09 06:43:44;;;;;;;49.60;30.07;;;;;;;2.55;98.98;98106.97;2169578;81;20980;-84
2022/12/09 06:46:45;;;;;;;48.43;29.07;;;;;;;2.37;91.06;98112.83;2169412;81;21865;-84
2022/12/09 06:49:45;;;;;;;56.13;32.07;;;;;;;2.37;91.06;98112.83;2169449;81;20984;-84
2022/12/09 06:52:45;;;;;;;51.43;30.87;;;;;;;2.30;91.04;98116.45;2169768;81;21204;-84
2022/12/09 06:55:47;;;;;;;57.67;32.67;;;;;;;2.19;90.75;98115.69;2169328;81;21000;-84
2022/12/09 06:58:46;;;;;;;57.30;31.73;;;;;;;2.12;90.81;98115.44;2169727;81;20976;-83
2022/12/09 07:01:47;;;;;;;53.67;33.27;;;;;;;2.08;90.98;98128.62;2169457;81;21405;-83
2022/12/09 07:04:47;;;;;;;54.23;32.53;;;;;;;2.06;91.02;98131.55;2169043;81;21001;-83
2022/12/09 07:07:47;;;;;;;51.37;32.47;;;;;;;2.06;90.98;98133.25;2169565;81;21076;-83
2022/12/09 07:10:48;;;;;;;51.80;32.43;;;;;;;2.04;91.00;98138.34;2169219;81;21016;-82
2022/12/09 07:13:48;;;;;;;57.10;33.33;;;;;;;2.06;91.14;98137.11;2169621;81;20957;-82
2022/12/09 07:16:49;;;;;;;59.43;35.73;;;;;;;2.04;91.19;98134.48;2170373;81;20984;-84
2022/12/09 07:19:49;;;;;;;63.50;37.90;;;;;;;2.07;91.34;98133.72;2170468;81;21395;-83
2022/12/09 07:22:49;;;;;;;66.50;39.43;;;;;;;2.10;91.29;98135.11;2169930;81;20984;-81
2022/12/09 07:25:50;;;;;;;66.03;36.60;;;;;;;2.12;91.28;98128.31;2169814;81;20961;-83
2022/12/09 07:28:50;;;;;;;58.43;34.43;;;;;;;2.17;91.43;98135.36;2169743;81;21294;-83
2022/12/09 07:31:51;;;;;;;55.40;34.43;;;;;;;2.20;91.27;98122.59;2169412;81;20972;-83
2022/12/09 07:34:51;;;;;;;60.73;35.70;;;;;;;2.24;91.21;98115.42;2169349;81;21016;-82
2022/12/09 07:37:51;;;;;;;58.10;34.13;;;;;;;2.29;91.29;98114.70;2169884;81;21443;-81
2022/12/09 07:40:52;;;;;;;55.80;33.50;;;;;;;2.34;91.39;98114.02;2170144;82;21020;-83
2022/12/09 07:43:52;;;;;;;55.33;33.80;;;;;;;2.36;91.02;98120.52;2171570;81;20972;-83
2022/12/09 07:46:53;;;;;;;59.83;34.67;;;;;;;2.39;91.07;98117.63;2170476;81;20980;-84
2022/12/09 07:49:53;;;;;;;56.30;33.97;;;;;;;2.45;91.15;98107.52;2169816;81;21680;-82
2022/12/09 07:52:53;;;;;;;54.70;34.17;;;;;;;2.49;90.83;98112.34;2169730;81;21448;-83
2022/12/09 07:55:54;;;;;;;58.73;35.17;;;;;;;2.56;90.98;98112.59;2170149;82;20967;-84
2022/12/09 07:58:55;;;;;;;55.07;33.97;;;;;;;2.65;90.92;98118.48;2169832;81;21672;-82
2022/12/09 08:01:55;;;;;;;57.50;34.97;;;;;;;2.68;90.65;98117.70;2170031;81;20925;-82
2022/12/09 08:04:55;;;;;;;55.77;35.30;;;;;;;2.71;90.29;98113.51;2182323;81;21059;-83
2022/12/09 08:07:55;;;;;;;68.80;40.60;;;;;;;2.75;90.47;98113.19;2186600;81;20995;-82
2022/12/09 08:10:56;;;;;;;57.10;36.03;;;;;;;2.80;90.39;98111.63;2186467;81;21063;-81
2022/12/09 08:13:56;;;;;;;57.30;34.30;;;;;;;2.85;90.25;98108.36;2186424;81;20983;-80
2022/12/09 08:16:57;;;;;;;54.93;35.33;;;;;;;2.92;90.17;98112.00;2186135;81;21015;-77
2022/12/09 08:19:57;;;;;;;56.40;35.20;;;;;;;2.99;90.33;98099.75;2184085;81;21062;-82
2022/12/09 08:22:58;;;;;;;67.10;37.07;;;;;;;3.05;89.94;98102.92;2186510;81;20924;-78
2022/12/09 08:25:58;;;;;;;55.70;34.63;;;;;;;3.10;90.12;98104.80;2187688;81;20940;-77
2022/12/09 08:28:58;;;;;;;56.03;34.90;;;;;;;3.19;89.96;98105.07;2185819;81;21031;-79
2022/12/09 08:31:59;;;;;;;59.23;35.93;;;;;;;3.33;89.75;98108.05;2184166;81;21038;-80
2022/12/09 08:34:59;;;;;;;51.17;34.27;;;;;;;3.49;89.51;98106.38;2185654;81;21426;-80
2022/12/09 08:38:00;;;;;;;53.07;33.23;;;;;;;3.66;89.02;98109.42;2185943;81;20983;-80
2022/12/09 08:41:00;;;;;;;55.07;33.97;;;;;;;3.76;88.74;98101.52;2186507;81;21028;-83
2022/12/09 08:44:01;;;;;;;54.63;35.53;;;;;;;3.85;88.68;98103.05;2186965;81;20979;-78
2022/12/09 08:47:01;;;;;;;57.90;36.63;;;;;;;3.88;88.55;98108.70;2186284;81;20908;-80
2022/12/09 08:50:01;;;;;;;56.47;36.53;;;;;;;3.90;87.97;98105.74;2185951;81;21690;-82
2022/12/09 08:53:02;;;;;;;55.70;34.80;;;;;;;3.92;87.85;98104.08;2186196;81;20949;-78
2022/12/09 08:56:02;;;;;;;55.67;36.30;;;;;;;3.95;87.72;98102.86;2186193;81;20994;-78
2022/12/09 08:59:02;;;;;;;58.37;36.27;;;;;;;3.99;87.69;98108.14;2184296;81;21199;-83
2022/12/09 09:02:03;;;;;;;58.40;36.47;;;;;;;3.99;87.60;98115.02;2186127;81;20908;-81
2022/12/09 09:05:03;;;;;;;56.43;35.60;;;;;;;4.01;87.70;98121.10;2186168;81;21008;-82
2022/12/09 09:08:04;;;;;;;52.20;33.73;;;;;;;4.02;87.32;98118.97;2186246;81;20984;-82
2022/12/09 09:11:09;;;;;;;60.73;37.40;;;;;;;4.04;86.78;98112.14;2186032;81;20944;-82
2022/12/09 09:14:04;;;;;;;52.23;35.57;;;;;;;3.97;86.82;98106.36;2186236;81;21007;-83
2022/12/09 09:17:05;;;;;;;61.00;38.93;;;;;;;3.92;86.91;98113.98;2185950;81;21019;-81
2022/12/09 09:20:05;;;;;;;55.67;34.77;;;;;;;3.83;86.96;98114.62;2187066;81;20967;-83
2022/12/09 09:23:06;;;;;;;58.37;36.83;;;;;;;3.83;86.99;98114.62;2187017;81;20960;-83
2022/12/09 09:26:06;;;;;;;57.57;34.70;;;;;;;3.81;87.08;98110.25;2186846;81;21030;-82
2022/12/09 09:29:07;;;;;;;60.50;36.73;;;;;;;3.79;86.72;98110.21;2186335;81;20971;-79
2022/12/09 09:32:07;;;;;;;56.87;34.43;;;;;;;3.77;87.04;98109.30;2185744;81;20979;-81
2022/12/09 09:35:07;;;;;;;51.83;33.97;;;;;;;3.81;87.19;98108.55;2186437;81;21027;-82
2022/12/09 09:38:08;;;;;;;52.07;33.60;;;;;;;3.73;87.01;98107.47;2186413;81;21046;-80
2022/12/09 09:41:08;;;;;;;49.10;31.40;;;;;;;3.73;87.01;98107.47;2187139;81;21411;-81
2022/12/09 09:44:08;;;;;;;47.67;32.83;;;;;;;3.64;86.54;98098.60;2186747;81;20971;-81
2022/12/09 09:47:09;;;;;;;52.17;34.30;;;;;;;3.53;86.71;98097.44;2186206;81;20941;-81
2022/12/09 09:50:09;;;;;;;55.10;33.67;;;;;;;3.49;86.85;98092.19;2186611;81;20960;-82
2022/12/09 09:53:10;;;;;;;52.50;35.03;;;;;;;3.41;87.00;98092.36;2186815;81;21011;-81
2022/12/09 09:56:10;;;;;;;58.00;35.00;;;;;;;3.33;87.15;98084.83;2187137;81;20964;-81
2022/12/09 09:59:11;;;;;;;54.13;34.10;;;;;;;3.28;87.39;98094.14;2186341;81;20996;-82
2022/12/09 10:02:11;;;;;;;60.43;37.20;;;;;;;3.24;87.39;98093.59;2186793;81;20956;-82
2022/12/09 10:05:12;;;;;;;55.77;34.10;;;;;;;3.20;87.60;98092.63;2186602;81;21035;-81
2022/12/09 10:08:12;;;;;;;51.23;35.30;;;;;;;3.19;87.59;98094.75;2186040;81;21011;-81
2022/12/09 10:11:12;;;;;;;53.03;34.03;;;;;;;3.23;87.77;98100.88;2185880;81;21336;-81
2022/12/09 10:14:13;;;;;;;57.80;35.63;;;;;;;3.26;87.79;98088.06;2185807;81;21457;-80
2022/12/09 10:17:13;;;;;;;54.87;33.87;;;;;;;3.32;87.88;98082.20;2186081;81;20992;-79
2022/12/09 10:20:14;;;;;;;57.60;36.30;;;;;;;3.36;87.64;98078.46;2186127;81;21237;-79
2022/12/09 10:23:14;;;;;;;59.37;37.33;;;;;;;3.41;87.70;98085.91;2185707;81;21466;-78
2022/12/09 10:26:15;;;;;;;62.47;36.00;;;;;;;3.56;87.75;98085.49;2183549;81;20976;-78
2022/12/09 10:29:15;;;;;;;63.67;36.73;;;;;;;3.68;87.78;98088.40;2183184;81;21037;-78
2022/12/09 10:32:15;;;;;;;58.47;35.17;;;;;;;3.88;87.68;98088.05;2182788;81;20956;-77
2022/12/09 10:35:16;;;;;;;59.67;34.63;;;;;;;4.08;87.48;98082.97;2183014;81;21035;-80
2022/12/09 10:38:16;;;;;;;50.60;28.23;;;;;;;4.28;87.00;98084.75;2185948;81;21961;-81
2022/12/09 10:43:33;;;;;;;45.27;26.67;;;;;;;4.38;85.65;98076.00;2185905;81;20979;-79
2022/12/09 10:44:17;;;;;;;35.83;25.13;;;;;;;4.41;85.14;98077.78;2186275;81;20952;-80
2022/12/09 10:47:17;;;;;;;39.90;24.97;;;;;;;4.51;84.92;98069.41;2186557;81;20995;-82
2022/12/09 10:50:18;;;;;;;41.67;24.27;;;;;;;4.66;84.97;98060.71;2186907;81;21534;-81
2022/12/09 10:53:18;;;;;;;39.73;24.97;;;;;;;4.82;83.95;98059.34;2187127;81;21014;-81
2022/12/09 10:56:19;;;;;;;38.40;24.67;;;;;;;4.90;83.22;98062.96;2187225;81;21019;-81
2022/12/09 10:59:19;;;;;;;35.00;23.50;;;;;;;4.96;83.26;98060.50;2185163;81;21059;-79
2022/12/09 11:02:20;;;;;;;46.03;27.93;;;;;;;5.02;82.91;98056.75;2185420;81;20987;-81
2022/12/09 11:05:20;;;;;;;40.10;26.27;;;;;;;5.06;83.05;98046.92;2176312;81;21116;-79
2022/12/09 11:08:20;;;;;;;39.53;26.20;;;;;;;5.11;82.62;98045.73;2169407;81;21017;-78
2022/12/09 11:11:21;;;;;;;40.40;25.70;;;;;;;5.09;82.28;98059.92;2170214;82;20980;-78
2022/12/09 11:14:21;;;;;;;38.97;26.47;;;;;;;5.10;82.25;98053.91;2170003;81;21080;-82
2022/12/09 11:17:22;;;;;;;35.47;24.63;;;;;;;5.07;81.39;98040.03;2171230;81;21063;-83
2022/12/09 11:20:22;;;;;;;36.00;24.70;;;;;;;5.00;81.39;98035.16;2171210;81;20925;-79
2022/12/09 11:23:22;;;;;;;34.83;24.57;;;;;;;5.00;81.34;98039.04;2171044;82;21048;-82
2022/12/09 11:26:23;;;;;;;35.47;24.30;;;;;;;5.04;81.56;98040.84;2170471;81;20972;-81
2022/12/09 11:29:23;;;;;;;35.30;24.33;;;;;;;5.08;81.49;98027.14;2169579;81;21686;-82
2022/12/09 11:32:24;;;;;;;34.47;23.23;;;;;;;5.11;80.84;98026.33;2169237;81;21028;-81
2022/12/09 11:35:24;;;;;;;39.40;25.33;;;;;;;5.15;80.86;98027.26;2168980;81;20957;-83
2022/12/09 11:38:24;;;;;;;37.37;25.33;;;;;;;5.16;80.40;98030.30;2169658;81;20969;-80
2022/12/09 11:44:44;;;;;;;39.63;25.97;;;;;;;5.11;79.69;98026.33;2170077;82;21028;-81
2022/12/09 11:47:47;;;;;;;40.43;26.40;;;;;;;5.12;79.89;98031.53;2169879;81;20992;-82
2022/12/09 11:50:48;;;;;;;36.27;26.30;;;;;;;5.14;80.04;98035.44;2169511;81;20976;-80
2022/12/09 11:53:48;;;;;;;39.57;24.57;;;;;;;5.13;80.36;98030.69;2170211;81;21860;-83
2022/12/09 11:56:48;;;;;;;40.13;24.13;;;;;;;5.18;79.82;98033.37;2170006;82;21135;-82
2022/12/09 11:59:49;;;;;;;40.50;25.10;;;;;;;5.20;79.47;98041.16;2170177;81;20901;-83
2022/12/09 12:02:49;;;;;;;44.17;26.60;;;;;;;5.18;79.41;98044.14;2170005;81;21207;-84
2022/12/09 12:05:50;;;;;;;41.17;25.97;;;;;;;5.19;79.67;98036.41;2169473;82;21035;-84
2022/12/09 12:08:50;;;;;;;38.87;24.43;;;;;;;5.21;79.61;98027.41;2169797;81;21565;-83
2022/12/09 12:11:50;;;;;;;38.93;24.63;;;;;;;5.21;79.63;98021.81;2169556;82;20961;-83
2022/12/09 12:14:51;;;;;;;38.07;24.67;;;;;;;5.22;79.17;98021.40;2170061;81;20968;-84
2022/12/09 12:17:51;;;;;;;36.90;24.83;;;;;;;5.19;79.41;98020.01;2169156;81;21672;-73
2022/12/09 12:20:51;;;;;;;32.87;22.97;;;;;;;5.14;79.50;98021.21;2167965;81;21167;-82
2022/12/09 12:23:52;;;;;;;36.67;20.97;;;;;;;5.13;79.10;98019.05;2170670;81;21290;-80
2022/12/09 12:26:52;;;;;;;33.70;22.23;;;;;;;5.17;80.85;98015.23;2170562;81;21000;-82
2022/12/09 12:29:55;;;;;;;33.83;21.40;;;;;;;5.37;78.92;98012.22;2170351;81;21063;-82
2022/12/09 12:32:56;;;;;;;30.83;20.53;;;;;;;5.52;78.53;98009.04;2170272;81;20960;-81
2022/12/09 12:35:56;;;;;;;31.80;22.40;;;;;;;5.41;77.61;98012.72;2169781;81;21053;-82
2022/12/09 12:38:56;;;;;;;33.10;21.00;;;;;;;5.32;77.89;98014.27;2169972;81;21649;-82
2022/12/09 12:41:57;;;;;;;33.23;21.63;;;;;;;5.22;77.63;98016.22;2170353;81;20933;-84
2022/12/09 12:48:03;;;;;;;34.67;20.50;;;;;;;5.09;77.48;98008.19;2170818;81;21415;-78
2022/12/09 12:51:04;;;;;;;31.63;20.03;;;;;;;5.00;77.94;97998.95;2167878;81;21326;-82
2022/12/09 12:54:04;;;;;;;29.67;19.47;;;;;;;4.90;77.72;97999.60;2170404;81;21024;-83
2022/12/09 12:57:05;;;;;;;25.20;19.00;;;;;;;5.01;79.50;98004.58;2170016;82;21470;-81
2022/12/09 13:00:10;;;;;;;28.10;19.87;;;;;;;5.10;78.58;97998.71;2170274;81;20976;-82
2022/12/09 13:03:08;;;;;;;26.60;18.53;;;;;;;5.04;78.49;98001.17;2170533;81;20987;-82
2022/12/09 13:06:09;;;;;;;29.30;19.87;;;;;;;5.01;78.25;98004.58;2181922;81;21084;-81
2022/12/09 13:09:09;;;;;;;29.63;21.50;;;;;;;5.03;78.56;98000.30;2186936;81;21733;-84
2022/12/09 13:12:09;;;;;;;33.73;22.97;;;;;;;5.02;78.08;97998.98;2186094;81;21015;-83
2022/12/09 13:15:10;;;;;;;35.20;24.13;;;;;;;4.98;77.84;97995.45;2185796;81;20921;-81
2022/12/09 13:18:10;;;;;;;37.97;24.57;;;;;;;4.89;78.03;98000.86;2185258;81;21000;-83
2022/12/09 13:21:11;;;;;;;39.00;24.73;;;;;;;4.74;78.27;98001.42;2185557;81;20992;-82
2022/12/09 13:24:12;;;;;;;30.23;22.30;;;;;;;4.56;78.43;98001.90;2185425;81;21356;-81
2022/12/09 13:27:11;;;;;;;31.70;21.73;;;;;;;4.44;78.50;97991.29;2185225;81;20952;-81
2022/12/09 13:30:12;;;;;;;29.77;21.37;;;;;;;4.27;78.27;97993.47;2185601;81;20959;-82
2022/12/09 13:33:12;;;;;;;32.73;21.20;;;;;;;4.19;78.77;97991.13;2185768;81;21438;-82
2022/12/09 13:36:13;;;;;;;32.97;21.67;;;;;;;4.16;79.12;97993.22;2186026;81;20969;-82
2022/12/09 13:39:13;;;;;;;31.00;21.43;;;;;;;4.13;79.30;97980.65;2185755;81;21078;-82
2022/12/09 13:45:33;;;;;;;29.43;20.73;;;;;;;4.03;79.78;97979.56;2186482;81;20967;-79
2022/12/09 13:48:35;;;;;;;30.43;20.23;;;;;;;3.98;79.77;97990.62;2186291;81;21019;-81
2022/12/09 13:51:33;;;;;;;31.53;20.03;;;;;;;3.97;80.01;98001.78;2186076;81;21015;-79
2022/12/09 13:54:34;;;;;;;26.20;18.33;;;;;;;3.96;80.05;97987.13;2186223;81;21003;-83
2022/12/09 13:57:34;;;;;;;31.83;19.77;;;;;;;3.92;80.33;97983.59;2185810;81;21707;-81
2022/12/09 14:00:35;;;;;;;30.37;19.67;;;;;;;3.89;80.56;97986.11;2185299;81;21001;-79
2022/12/09 14:03:35;;;;;;;32.50;20.53;;;;;;;3.90;80.85;97980.53;2185572;81;20990;-79
2022/12/09 14:06:35;;;;;;;41.13;26.40;;;;;;;3.85;80.88;97971.38;2181867;81;21498;-81